createdAt,value
2023-05-10T00:01:59.873Z,4.63
2023-05-10T00:09:01.925Z,4.22
2023-05-10T00:16:04.867Z,4.50
2023-05-10T00:23:07.998Z,4.18
2023-05-10T00:30:11.189Z,4.40
2023-05-10T00:37:13.243Z,4.20
2023-05-10T00:44:15.185Z,4.32
2023-05-10T00:51:17.402Z,5.18
2023-05-10T00:58:19.357Z,4.10
2023-05-10T01:05:21.429Z,4.38
2023-05-10T01:12:23.700Z,4.07
2023-05-10T01:19:29.560Z,4.35
2023-05-10T01:27:08.998Z,4.30
2023-05-10T01:34:17.754Z,4.63
2023-05-10T01:41:34.805Z,4.10
2023-05-10T01:48:36.892Z,4.40
2023-05-10T01:55:47.729Z,4.78
2023-05-10T02:02:50.955Z,4.68
2023-05-10T02:09:53.113Z,4.45
2023-05-10T02:16:57.413Z,4.43
2023-05-10T02:24:01.625Z,4.38
2023-05-10T02:31:04.006Z,4.47
2023-05-10T02:38:07.824Z,4.30
2023-05-10T02:45:13.746Z,4.78
2023-05-10T02:52:20.595Z,5.05
2023-05-10T02:59:22.546Z,4.90
2023-05-10T03:06:24.990Z,5.72
2023-05-10T03:14:04.703Z,4.97
2023-05-10T03:21:10.256Z,4.87
2023-05-10T03:28:13.456Z,5.10
2023-05-10T03:35:15.865Z,5.22
2023-05-10T03:42:19.133Z,4.82
2023-05-10T03:49:21.150Z,5.35
2023-05-10T03:56:23.160Z,5.45
2023-05-10T04:03:27.086Z,5.28
2023-05-10T04:10:29.395Z,4.90
2023-05-10T04:17:32.569Z,5.80
2023-05-10T04:24:34.534Z,5.43
2023-05-10T04:31:37.547Z,5.32
2023-05-10T04:38:39.619Z,5.15
2023-05-10T04:45:41.666Z,5.05
2023-05-10T04:52:43.654Z,4.82
2023-05-10T04:59:45.658Z,4.85
2023-05-10T05:06:47.556Z,3.95
2023-05-10T05:13:49.681Z,4.50
2023-05-10T05:20:51.650Z,4.10
2023-05-10T05:27:53.608Z,4.18
2023-05-10T05:34:55.594Z,4.53
2023-05-10T05:41:57.777Z,3.75
2023-05-10T05:48:59.805Z,3.78
2023-05-10T05:56:01.818Z,3.83
2023-05-10T06:03:04.036Z,3.88
2023-05-10T06:10:08.349Z,3.20
2023-05-10T06:17:10.312Z,3.08
2023-05-10T06:24:12.240Z,3.42
2023-05-10T06:31:14.160Z,3.05
2023-05-10T06:38:16.454Z,2.80
2023-05-10T06:45:19.047Z,2.92
2023-05-10T06:52:21.434Z,2.72
2023-05-10T06:59:23.916Z,2.55
2023-05-10T07:06:33.527Z,2.42
2023-05-10T07:13:37.456Z,2.65
2023-05-10T07:20:39.450Z,2.45
2023-05-10T07:27:41.502Z,2.40
2023-05-10T07:34:43.561Z,2.53
2023-05-10T07:41:45.464Z,2.33
2023-05-10T07:48:47.446Z,2.90
2023-05-10T07:55:53.204Z,3.00
2023-05-10T08:02:55.182Z,2.17
2023-05-10T08:09:57.206Z,2.72
2023-05-10T08:16:59.376Z,2.70
2023-05-10T08:24:01.406Z,2.60
2023-05-10T08:31:03.549Z,2.50
2023-05-10T08:38:05.501Z,2.35
2023-05-10T08:45:09.719Z,2.40
2023-05-10T08:52:14.405Z,2.30
2023-05-10T08:59:17.264Z,2.42
2023-05-10T09:06:19.815Z,2.70
2023-05-10T09:13:23.803Z,2.50
2023-05-10T09:20:25.904Z,1.90
2023-05-10T09:27:28.556Z,2.15
2023-05-10T09:34:32.862Z,2.17
2023-05-10T09:41:34.790Z,2.10
2023-05-10T09:48:43.273Z,2.10
2023-05-10T09:55:47.863Z,2.20
2023-05-10T10:02:56.879Z,2.15
2023-05-10T10:24:07.731Z,2.00
2023-05-10T10:31:30.945Z,2.00
2023-05-10T10:38:48.233Z,2.25
2023-05-10T10:46:17.254Z,1.90
2023-05-10T10:53:19.375Z,2.00
2023-05-10T11:00:38.712Z,2.55
2023-05-10T11:07:56.587Z,1.98
2023-05-10T11:14:59.318Z,1.90
2023-05-10T11:22:10.083Z,2.00
2023-05-10T11:29:14.984Z,1.90
2023-05-10T11:36:28.725Z,1.85
2023-05-10T11:43:34.657Z,2.08
2023-05-10T11:50:37.813Z,1.92
2023-05-10T11:57:39.832Z,2.30
2023-05-10T12:04:42.992Z,1.90
2023-05-10T12:11:44.988Z,1.90
2023-05-10T12:18:50.194Z,2.10
2023-05-10T12:25:56.208Z,1.67
2023-05-10T12:33:12.888Z,1.95
2023-05-10T12:40:15.850Z,2.00
2023-05-10T12:47:18.028Z,1.90
2023-05-10T12:54:20.006Z,2.15
2023-05-10T13:01:22.005Z,1.98
2023-05-10T13:08:23.971Z,2.03
2023-05-10T13:15:27.622Z,1.90
2023-05-10T13:22:39.913Z,1.80
2023-05-10T13:29:44.388Z,1.65
2023-05-10T13:36:47.648Z,1.80
2023-05-10T13:43:50.597Z,2.00
2023-05-10T13:50:52.534Z,2.00
2023-05-10T13:57:54.416Z,1.80
2023-05-10T14:04:56.329Z,1.80
2023-05-10T14:11:58.585Z,2.10
2023-05-10T14:19:00.740Z,2.10
2023-05-10T14:26:03.005Z,1.90
2023-05-10T14:33:05.085Z,1.88
2023-05-10T14:40:08.508Z,2.00
2023-05-10T14:47:12.079Z,2.22
2023-05-10T14:54:14.293Z,1.80
2023-05-10T15:01:16.245Z,1.73
2023-05-10T15:08:18.444Z,1.90
2023-05-10T15:15:20.797Z,2.28
2023-05-10T15:22:23.477Z,1.95
2023-05-10T15:29:25.399Z,2.05
2023-05-10T15:36:27.578Z,1.83
2023-05-10T15:43:29.828Z,2.03
2023-05-10T15:50:31.774Z,2.20
2023-05-10T15:57:35.032Z,2.30
2023-05-10T16:04:39.539Z,2.05
2023-05-10T16:11:43.349Z,1.98
2023-05-10T16:18:45.424Z,1.95
2023-05-10T16:25:47.369Z,1.85
2023-05-10T16:32:50.296Z,2.03
2023-05-10T16:39:52.648Z,2.00
2023-05-10T16:46:55.267Z,2.53
2023-05-10T16:53:57.363Z,1.90
2023-05-10T17:00:59.351Z,2.00
2023-05-10T17:08:01.618Z,2.50
2023-05-10T17:15:04.023Z,2.20
2023-05-10T17:22:06.034Z,2.17
2023-05-10T17:29:08.577Z,2.35
2023-05-10T17:36:10.751Z,2.22
2023-05-10T17:43:12.843Z,1.90
2023-05-10T17:50:14.807Z,2.50
2023-05-10T17:57:18.384Z,2.30
2023-05-10T18:04:20.591Z,2.40
2023-05-10T18:11:23.157Z,2.58
2023-05-10T18:18:25.819Z,6.70
2023-05-10T18:25:27.756Z,4.43
2023-05-10T18:32:29.874Z,3.20
2023-05-10T18:39:31.936Z,3.15
2023-05-10T18:46:34.547Z,3.50
2023-05-10T18:53:37.460Z,3.20
2023-05-10T19:00:40.001Z,7.47
2023-05-10T19:07:44.439Z,4.45
2023-05-10T19:14:49.491Z,4.82
2023-05-10T19:21:57.158Z,3.92
2023-05-10T19:29:00.129Z,3.53
2023-05-10T19:36:02.800Z,3.42
2023-05-10T19:43:06.223Z,4.18
2023-05-10T19:50:09.016Z,3.70
2023-05-10T19:57:12.135Z,4.25
2023-05-10T20:04:17.733Z,5.03
2023-05-10T20:11:20.281Z,4.20
2023-05-10T20:18:22.818Z,5.00
2023-05-10T20:25:25.018Z,4.30
2023-05-10T20:32:27.085Z,5.18
2023-05-10T20:39:30.090Z,3.92
2023-05-10T20:46:33.107Z,3.33
2023-05-10T20:53:35.305Z,4.00
2023-05-10T21:00:37.257Z,3.85
2023-05-10T21:07:39.946Z,4.93
2023-05-10T21:14:43.275Z,5.22
2023-05-10T21:21:50.980Z,5.90
2023-05-10T21:28:53.491Z,5.90
2023-05-10T21:35:55.644Z,4.97
2023-05-10T21:42:58.154Z,4.55
2023-05-10T21:50:00.384Z,5.07
2023-05-10T21:57:02.344Z,4.72
2023-05-10T22:04:04.402Z,5.03
2023-05-10T22:11:06.590Z,5.78
2023-05-10T22:18:09.558Z,5.32
2023-05-10T22:25:11.804Z,5.05
2023-05-10T22:32:13.758Z,4.93
2023-05-10T22:39:16.371Z,5.18
2023-05-10T22:46:18.353Z,5.80
2023-05-10T22:53:20.294Z,6.20
2023-05-10T23:00:22.286Z,6.15
2023-05-10T23:07:24.380Z,5.70
2023-05-10T23:14:26.311Z,6.18
2023-05-10T23:21:30.618Z,5.95
2023-05-10T23:28:34.123Z,5.68
2023-05-10T23:35:36.240Z,5.63
2023-05-10T23:42:38.194Z,5.38
2023-05-10T23:49:42.421Z,5.50
2023-05-10T23:56:44.541Z,5.47
